Time;durP1;ratioP1;P1;durP2;ratioP2;P2;SDS_P1;SDS_P2;PMS_P1;PMS_P2;Temp;Humidity;BMP_temperature;BMP_pressure;BME280_temperature;BME280_humidity;BME280_pressure;Samples;Min_cycle;Max_cycle;Signal;HPM_P1;HPM_P2
2021/01/08 00:01:22;;;;;;;33.35;14.30;;;2.50;99.90;;;;;;5050356;28;20040;-81
2021/01/08 00:03:48;;;;;;;30.55;13.52;;;2.40;99.90;;;;;;5068916;28;20369;-81
2021/01/08 00:06:20;;;;;;;28.80;13.65;;;2.40;99.90;;;;;;5051504;28;20393;-81
2021/01/08 00:08:46;;;;;;;32.35;14.40;;;2.40;99.90;;;;;;5050911;28;20021;-81
2021/01/08 00:11:19;;;;;;;34.05;15.38;;;2.40;99.90;;;;;;5067648;28;20053;-81
2021/01/08 00:13:46;;;;;;;27.63;12.63;;;2.40;99.90;;;;;;5067181;28;20031;-81
2021/01/08 00:16:12;;;;;;;31.17;13.32;;;2.40;99.90;;;;;;5065606;28;20028;-81
2021/01/08 00:18:38;;;;;;;35.45;14.25;;;2.40;99.90;;;;;;5069087;28;20033;-81
2021/01/08 00:21:04;;;;;;;31.13;11.68;;;2.40;99.90;;;;;;5051467;28;20036;-81
2021/01/08 00:23:31;;;;;;;28.55;12.75;;;2.40;99.90;;;;;;5051495;28;20032;-81
2021/01/08 00:25:57;;;;;;;32.40;13.82;;;2.40;99.90;;;;;;5046575;28;20049;-81
2021/01/08 00:28:23;;;;;;;26.02;11.25;;;2.40;99.90;;;;;;5048806;28;20386;-81
2021/01/08 00:30:48;;;;;;;29.52;12.68;;;2.40;99.90;;;;;;5049275;28;20035;-81
2021/01/08 00:33:14;;;;;;;25.70;11.88;;;2.40;99.90;;;;;;5068408;28;20460;-81
2021/01/08 00:35:40;;;;;;;28.17;12.75;;;2.40;99.90;;;;;;5051253;28;20028;-81
2021/01/08 00:38:06;;;;;;;26.52;11.68;;;2.40;99.90;;;;;;5036088;28;20117;-81
2021/01/08 00:40:32;;;;;;;27.30;10.95;;;2.40;99.90;;;;;;5048105;28;20119;-81
2021/01/08 00:42:58;;;;;;;28.38;11.30;;;2.50;99.90;;;;;;5066506;28;20431;-81
2021/01/08 00:45:23;;;;;;;30.02;10.90;;;2.50;99.90;;;;;;5046560;28;20028;-81
2021/01/08 00:47:49;;;;;;;26.45;10.35;;;2.50;99.90;;;;;;5068592;28;20416;-81
2021/01/08 00:50:15;;;;;;;28.88;13.52;;;2.40;99.90;;;;;;5047910;28;20048;-81
2021/01/08 00:52:40;;;;;;;35.72;13.90;;;2.40;99.90;;;;;;5051900;28;20380;-81
2021/01/08 00:55:07;;;;;;;28.85;12.32;;;2.40;99.90;;;;;;5053485;28;20028;-81
2021/01/08 00:57:32;;;;;;;38.50;14.93;;;2.40;99.90;;;;;;5052642;28;20036;-81
2021/01/08 00:59:58;;;;;;;37.72;12.98;;;2.40;99.90;;;;;;5069814;28;20032;-81
2021/01/08 01:02:24;;;;;;;30.13;12.05;;;2.40;99.90;;;;;;5057918;28;20024;-81
2021/01/08 01:04:49;;;;;;;37.42;12.65;;;2.40;99.90;;;;;;5053101;28;20061;-81
2021/01/08 01:07:15;;;;;;;33.70;13.65;;;2.40;99.90;;;;;;5054814;28;20032;-81
2021/01/08 01:09:40;;;;;;;32.40;12.32;;;2.40;99.90;;;;;;5053644;28;20662;-81
2021/01/08 01:12:06;;;;;;;35.13;12.85;;;2.40;99.90;;;;;;5052764;28;20373;-81
2021/01/08 01:14:32;;;;;;;33.65;13.13;;;2.40;99.90;;;;;;5052413;28;20036;-81
2021/01/08 01:17:02;;;;;;;37.70;12.93;;;2.40;99.90;;;;;;5053450;28;20557;-81
2021/01/08 01:19:31;;;;;;;37.22;14.40;;;2.40;99.90;;;;;;5070493;28;20440;-81
2021/01/08 01:21:57;;;;;;;39.75;14.80;;;2.40;99.90;;;;;;5048394;28;20107;-81
2021/01/08 01:24:22;;;;;;;31.92;13.23;;;2.40;99.90;;;;;;5045158;28;20147;-81
2021/01/08 01:26:54;;;;;;;35.67;12.77;;;2.40;99.90;;;;;;5052940;28;20028;-81
2021/01/08 01:29:19;;;;;;;;;;;2.40;99.90;;;;;;5052241;28;20066;-81
2021/01/08 01:31:45;;;;;;;22.52;10.60;;;2.40;99.90;;;;;;5052924;28;19908;-81
2021/01/08 01:34:10;;;;;;;32.80;13.18;;;2.40;99.90;;;;;;5053561;28;20538;-81
2021/01/08 01:36:36;;;;;;;33.40;12.93;;;2.40;99.90;;;;;;5053842;28;20017;-81
2021/01/08 01:39:02;;;;;;;31.15;12.45;;;2.30;99.90;;;;;;5053095;28;20070;-81
2021/01/08 01:41:27;;;;;;;31.58;12.75;;;2.30;99.90;;;;;;5052056;28;20528;-81
2021/01/08 01:43:53;;;;;;;28.60;13.30;;;2.30;99.90;;;;;;5052513;28;20048;-81
2021/01/08 01:46:22;;;;;;;25.20;12.23;;;2.30;99.90;;;;;;5069513;28;20054;-81
2021/01/08 01:48:51;;;;;;;29.17;12.50;;;2.30;99.90;;;;;;5068488;28;20060;-81
2021/01/08 01:51:19;;;;;;;28.45;11.85;;;2.30;99.90;;;;;;5033460;28;20093;-81
2021/01/08 01:53:45;;;;;;;35.75;12.35;;;2.30;99.90;;;;;;5052976;28;20059;-81
2021/01/08 01:56:11;;;;;;;28.55;11.88;;;2.30;99.90;;;;;;5048954;28;20025;-80
2021/01/08 01:58:37;;;;;;;30.45;11.82;;;2.30;99.90;;;;;;5050838;28;20096;-80
2021/01/08 02:01:03;;;;;;;34.53;13.70;;;2.30;99.90;;;;;;5068877;28;20020;-81
2021/01/08 02:03:39;;;;;;;22.73;10.85;;;2.30;99.90;;;;;;5070980;28;20020;-80
2021/01/08 02:06:09;;;;;;;30.40;12.32;;;2.30;99.90;;;;;;5033519;28;20111;-81
2021/01/08 02:08:37;;;;;;;28.05;11.73;;;2.40;99.90;;;;;;5052956;28;20029;-81
2021/01/08 02:11:07;;;;;;;27.38;12.43;;;2.30;99.90;;;;;;5051809;28;20020;-81
2021/01/08 02:13:41;;;;;;;22.40;9.27;;;2.30;99.90;;;;;;5069714;28;20040;-81
2021/01/08 02:16:09;;;;;;;28.83;10.82;;;2.30;99.90;;;;;;5039199;28;20025;-81
2021/01/08 02:18:37;;;;;;;29.48;10.10;;;2.30;99.90;;;;;;5038338;28;20346;-80
2021/01/08 02:21:09;;;;;;;27.38;11.60;;;2.30;99.90;;;;;;5051302;28;20024;-81
2021/01/08 02:24:00;;;;;;;29.00;11.30;;;2.30;99.90;;;;;;5055605;28;20024;-81
2021/01/08 02:26:26;;;;;;;26.23;11.77;;;2.30;99.90;;;;;;5095254;28;20013;-82
2021/01/08 02:28:53;;;;;;;34.40;12.40;;;2.30;99.90;;;;;;5078683;28;20296;-81
2021/01/08 02:31:18;;;;;;;25.20;11.27;;;2.30;99.90;;;;;;5078267;28;20076;-81
2021/01/08 02:33:44;;;;;;;24.95;10.65;;;2.30;99.90;;;;;;5078699;28;20585;-81
2021/01/08 02:36:11;;;;;;;25.95;10.80;;;2.30;99.90;;;;;;5078112;28;20016;-81
2021/01/08 02:38:37;;;;;;;25.15;11.40;;;2.30;99.90;;;;;;5074317;28;20500;-81
2021/01/08 02:41:07;;;;;;;25.35;11.88;;;2.30;99.90;;;;;;5088463;28;20031;-81
2021/01/08 02:43:34;;;;;;;27.98;11.60;;;2.20;99.90;;;;;;5071049;28;20067;-81
2021/01/08 02:46:00;;;;;;;23.40;10.50;;;2.30;99.90;;;;;;5090070;28;20051;-81
2021/01/08 02:48:26;;;;;;;26.23;11.32;;;2.30;99.90;;;;;;5061234;28;20127;-81
2021/01/08 02:50:52;;;;;;;30.13;11.52;;;2.20;99.90;;;;;;5052671;28;20032;-80
2021/01/08 02:53:21;;;;;;;22.88;11.65;;;2.20;99.90;;;;;;5052858;28;20043;-80
2021/01/08 02:55:54;;;;;;;23.08;10.85;;;2.20;99.90;;;;;;5049432;28;20025;-80
2021/01/08 02:58:21;;;;;;;23.50;11.38;;;2.20;99.90;;;;;;5046847;28;20028;-80
2021/01/08 03:00:49;;;;;;;23.55;10.43;;;2.20;99.90;;;;;;5049122;28;20115;-80
2021/01/08 03:03:15;;;;;;;23.55;9.65;;;2.20;99.90;;;;;;5052111;28;20047;-80
2021/01/08 03:05:41;;;;;;;23.60;10.00;;;2.10;99.90;;;;;;5051763;28;20473;-80
2021/01/08 03:08:07;;;;;;;27.15;10.98;;;2.10;99.90;;;;;;5051952;28;20078;-81
2021/01/08 03:10:32;;;;;;;26.48;11.77;;;2.10;99.90;;;;;;5050701;28;20024;-80
2021/01/08 03:13:02;;;;;;;23.73;12.23;;;2.10;99.90;;;;;;5062638;28;20769;-81
2021/01/08 03:15:28;;;;;;;22.80;10.60;;;2.10;99.90;;;;;;5065602;28;20017;-81
2021/01/08 03:17:53;;;;;;;28.80;13.20;;;2.10;99.90;;;;;;5068844;28;20039;-80
2021/01/08 03:20:19;;;;;;;23.27;11.43;;;2.10;99.90;;;;;;5059178;28;20162;-81
2021/01/08 03:22:45;;;;;;;25.30;10.88;;;2.10;99.90;;;;;;5055814;28;20021;-81
2021/01/08 03:25:11;;;;;;;27.77;12.27;;;2.10;99.90;;;;;;5050460;28;20033;-81
2021/01/08 03:27:36;;;;;;;24.30;11.68;;;2.10;99.90;;;;;;5051075;28;20030;-79
2021/01/08 03:30:04;;;;;;;20.77;10.43;;;2.10;99.90;;;;;;5050474;28;20039;-81
2021/01/08 03:32:29;;;;;;;21.80;10.80;;;2.10;99.90;;;;;;5050869;28;20032;-81
2021/01/08 03:34:55;;;;;;;27.58;12.23;;;2.10;99.90;;;;;;5053747;28;20090;-80
2021/01/08 03:37:21;;;;;;;26.20;11.55;;;2.10;99.90;;;;;;5062826;28;20032;-80
2021/01/08 03:39:46;;;;;;;27.05;11.63;;;2.10;99.90;;;;;;5050706;28;20036;-81
2021/01/08 03:42:12;;;;;;;24.23;11.40;;;2.10;99.90;;;;;;5050312;28;20442;-81
2021/01/08 03:44:37;;;;;;;28.50;11.88;;;2.00;99.90;;;;;;5047470;28;20078;-80
2021/01/08 03:47:03;;;;;;;24.13;11.65;;;2.00;99.90;;;;;;5050221;28;20056;-81
2021/01/08 03:49:29;;;;;;;20.08;9.90;;;2.10;99.90;;;;;;5068962;28;20029;-80
2021/01/08 03:51:54;;;;;;;23.52;11.27;;;2.10;99.90;;;;;;5050806;28;20024;-80
2021/01/08 03:54:20;;;;;;;24.70;12.07;;;2.00;99.90;;;;;;5050578;28;20029;-80
2021/01/08 03:56:46;;;;;;;24.58;11.70;;;2.10;99.90;;;;;;5049187;28;20033;-80
2021/01/08 03:59:11;;;;;;;24.17;12.75;;;2.00;99.90;;;;;;5067073;28;20381;-81
2021/01/08 04:01:37;;;;;;;28.52;12.65;;;2.10;99.90;;;;;;5051244;28;20227;-80
2021/01/08 04:04:02;;;;;;;27.65;12.45;;;2.10;99.90;;;;;;5068182;28;20059;-80
2021/01/08 04:06:28;;;;;;;24.90;12.32;;;2.00;99.90;;;;;;5069410;28;20046;-80
2021/01/08 04:08:55;;;;;;;25.60;13.02;;;2.00;99.90;;;;;;5049899;28;20066;-81
2021/01/08 04:11:20;;;;;;;25.85;12.77;;;2.00;99.90;;;;;;5050254;28;20017;-81
2021/01/08 04:13:46;;;;;;;23.17;11.55;;;1.90;99.90;;;;;;5049446;28;20094;-80
2021/01/08 04:16:13;;;;;;;22.20;12.05;;;1.90;99.90;;;;;;5047300;28;20025;-80
2021/01/08 04:18:38;;;;;;;27.75;12.70;;;1.90;99.90;;;;;;5062275;28;20034;-80
2021/01/08 04:21:04;;;;;;;28.65;13.27;;;1.90;99.90;;;;;;5051098;28;20103;-80
2021/01/08 04:23:30;;;;;;;27.90;12.68;;;1.90;99.90;;;;;;5050786;28;20037;-81
2021/01/08 04:25:55;;;;;;;26.52;12.15;;;1.90;99.90;;;;;;5049569;28;20036;-81
2021/01/08 04:28:21;;;;;;;27.85;13.02;;;2.00;99.90;;;;;;5050613;28;20032;-81
2021/01/08 04:30:46;;;;;;;24.75;12.73;;;1.90;99.90;;;;;;5051403;28;20060;-80
2021/01/08 04:33:12;;;;;;;23.58;12.07;;;1.90;99.90;;;;;;5055268;28;20138;-81
2021/01/08 04:35:37;;;;;;;26.50;12.23;;;1.90;99.90;;;;;;5054892;28;20017;-81
2021/01/08 04:38:03;;;;;;;29.98;10.77;;;1.80;99.90;;;;;;5072345;28;20032;-81
2021/01/08 04:40:29;;;;;;;28.23;13.43;;;1.80;99.90;;;;;;5052732;28;20118;-81
2021/01/08 04:42:54;;;;;;;24.55;12.77;;;1.80;99.90;;;;;;5053005;28;20020;-80
2021/01/08 04:45:20;;;;;;;26.20;13.65;;;1.80;99.90;;;;;;5052296;28;20029;-81
2021/01/08 04:47:47;;;;;;;29.00;13.00;;;1.80;99.90;;;;;;5053957;28;20045;-80
2021/01/08 04:50:14;;;;;;;23.02;12.18;;;1.70;99.90;;;;;;5054422;28;20031;-81
2021/01/08 04:52:40;;;;;;;26.35;11.70;;;1.70;99.90;;;;;;5054648;28;20016;-80
2021/01/08 04:55:06;;;;;;;29.95;14.68;;;1.70;99.90;;;;;;5054200;28;20020;-81
2021/01/08 04:57:34;;;;;;;33.22;14.52;;;1.70;99.90;;;;;;5052163;28;20035;-81
2021/01/08 05:00:00;;;;;;;30.75;14.68;;;1.70;99.90;;;;;;5052422;28;20500;-80
2021/01/08 05:02:26;;;;;;;32.47;14.73;;;1.70;99.90;;;;;;5051845;28;20021;-81
2021/01/08 05:04:53;;;;;;;26.42;11.77;;;1.70;99.90;;;;;;5051361;28;20477;-81
2021/01/08 05:07:19;;;;;;;30.88;12.48;;;1.60;99.90;;;;;;5046194;28;20028;-81
2021/01/08 05:09:45;;;;;;;30.05;13.55;;;1.60;99.90;;;;;;5053056;28;20094;-81
2021/01/08 05:12:10;;;;;;;33.88;13.90;;;1.60;99.90;;;;;;5053061;28;20078;-81
2021/01/08 05:14:37;;;;;;;35.22;14.90;;;1.60;99.90;;;;;;5030354;28;20072;-81
2021/01/08 05:17:02;;;;;;;43.92;16.88;;;1.60;99.90;;;;;;5047581;28;20127;-81
2021/01/08 05:19:28;;;;;;;31.80;14.13;;;1.60;99.90;;;;;;5049384;28;20076;-81
2021/01/08 05:21:54;;;;;;;32.00;14.75;;;1.60;99.90;;;;;;5018388;28;20447;-81
2021/01/08 05:24:23;;;;;;;34.00;14.80;;;1.60;99.90;;;;;;5032181;28;20058;-81
2021/01/08 05:26:52;;;;;;;41.30;15.45;;;1.60;99.90;;;;;;5031333;28;20021;-80
2021/01/08 05:29:18;;;;;;;33.75;14.68;;;1.60;99.90;;;;;;5030382;28;20029;-81
2021/01/08 05:31:47;;;;;;;44.38;17.02;;;1.60;99.90;;;;;;5044207;28;20056;-81
2021/01/08 05:34:13;;;;;;;35.28;16.83;;;1.60;99.90;;;;;;5053159;28;20131;-81
2021/01/08 05:36:38;;;;;;;44.78;16.17;;;1.60;99.90;;;;;;5032665;28;20025;-80
2021/01/08 05:39:04;;;;;;;38.15;17.10;;;1.60;99.90;;;;;;5047071;28;20408;-80
2021/01/08 05:41:32;;;;;;;43.90;18.50;;;1.60;99.90;;;;;;5032409;28;20546;-81
2021/01/08 05:43:59;;;;;;;48.30;19.02;;;1.60;99.90;;;;;;5045629;28;20385;-80
2021/01/08 05:46:31;;;;;;;39.30;16.75;;;1.60;99.90;;;;;;5046036;28;20037;-81
2021/01/08 05:49:05;;;;;;;43.30;16.73;;;1.60;99.90;;;;;;5048782;28;20052;-81
2021/01/08 05:51:35;;;;;;;39.60;17.15;;;1.60;99.90;;;;;;5070509;28;20104;-81
2021/01/08 05:54:02;;;;;;;37.55;16.88;;;1.60;99.90;;;;;;5066953;28;20430;-80
2021/01/08 05:56:32;;;;;;;37.60;15.85;;;1.60;99.90;;;;;;5067789;28;20028;-80
2021/01/08 05:59:01;;;;;;;37.35;15.98;;;1.60;99.90;;;;;;5049118;28;20029;-80
2021/01/08 06:01:29;;;;;;;44.60;19.67;;;1.60;99.90;;;;;;5050423;28;20028;-80
2021/01/08 06:03:55;;;;;;;43.33;17.30;;;1.60;99.90;;;;;;5067025;28;20734;-81
2021/01/08 06:06:26;;;;;;;41.33;15.20;;;1.60;99.90;;;;;;5051324;28;20020;-80
2021/01/08 06:08:53;;;;;;;32.85;15.15;;;1.60;99.90;;;;;;5043412;28;20036;-80
2021/01/08 06:11:29;;;;;;;35.97;13.77;;;1.60;99.90;;;;;;5050358;28;20116;-81
2021/01/08 06:14:00;;;;;;;37.20;15.70;;;1.60;99.90;;;;;;5047622;28;20527;-81
2021/01/08 06:16:36;;;;;;;41.30;16.42;;;1.60;99.90;;;;;;5049413;28;20030;-81
2021/01/08 06:19:03;;;;;;;36.13;16.10;;;1.60;99.90;;;;;;5045930;28;20033;-81
2021/01/08 06:21:41;;;;;;;36.00;14.98;;;1.60;99.90;;;;;;5040119;28;20990;-81
2021/01/08 06:24:28;;;;;;;39.92;14.30;;;1.70;99.90;;;;;;5045877;28;20038;-80
2021/01/08 06:26:55;;;;;;;27.88;12.35;;;1.60;99.90;;;;;;5049734;28;20017;-80
2021/01/08 06:29:24;;;;;;;31.27;13.73;;;1.60;99.90;;;;;;5065277;28;20469;-81
2021/01/08 06:32:05;;;;;;;34.83;14.15;;;1.60;99.90;;;;;;5049365;28;20028;-80
2021/01/08 06:34:31;;;;;;;32.67;14.00;;;1.60;99.90;;;;;;5065460;28;20028;-81
2021/01/08 06:37:09;;;;;;;38.78;16.15;;;1.60;99.90;;;;;;5041730;28;20078;-80
2021/01/08 06:39:41;;;;;;;42.20;15.40;;;1.60;99.90;;;;;;5050049;28;20444;-80
2021/01/08 06:42:08;;;;;;;31.88;13.50;;;1.60;99.90;;;;;;5067913;28;20059;-80
2021/01/08 06:44:34;;;;;;;37.72;14.90;;;1.50;99.90;;;;;;5049912;28;20516;-80
2021/01/08 06:47:04;;;;;;;38.92;14.90;;;1.60;99.90;;;;;;5065181;28;20024;-80
2021/01/08 06:49:32;;;;;;;34.85;15.30;;;1.60;99.90;;;;;;5063981;28;20418;-81
2021/01/08 06:52:01;;;;;;;40.05;15.98;;;1.60;99.90;;;;;;5048726;28;20039;-81
2021/01/08 06:54:28;;;;;;;47.15;19.15;;;1.60;99.90;;;;;;5051795;28;20550;-80
2021/01/08 06:57:00;;;;;;;29.60;13.50;;;1.60;99.90;;;;;;5065746;28;20035;-80
2021/01/08 06:59:31;;;;;;;43.42;17.65;;;1.60;99.90;;;;;;5049755;28;20020;-81
2021/01/08 07:02:12;;;;;;;43.53;16.25;;;1.60;99.90;;;;;;5046949;28;20481;-80
2021/01/08 07:04:39;;;;;;;38.53;16.17;;;1.70;99.90;;;;;;5043528;28;20039;-80
2021/01/08 07:07:06;;;;;;;43.15;16.95;;;1.70;99.90;;;;;;5048374;28;20278;-80
2021/01/08 07:09:36;;;;;;;42.83;18.27;;;1.70;99.90;;;;;;5049364;28;20032;-80
2021/01/08 07:12:04;;;;;;;31.85;14.52;;;1.70;99.90;;;;;;5062890;28;20067;-81
2021/01/08 07:14:31;;;;;;;38.38;16.70;;;1.60;99.90;;;;;;5049302;28;20038;-80
2021/01/08 07:16:58;;;;;;;39.72;15.60;;;1.60;99.90;;;;;;5048409;28;20036;-81
2021/01/08 07:19:27;;;;;;;45.60;16.80;;;1.60;99.90;;;;;;5051735;28;20021;-81
2021/01/08 07:21:54;;;;;;;37.08;15.70;;;1.70;99.90;;;;;;5055854;28;20339;-80
2021/01/08 07:24:38;;;;;;;30.30;12.18;;;1.60;99.90;;;;;;5065784;28;20028;-81
2021/01/08 07:27:18;;;;;;;43.05;16.27;;;1.60;99.90;;;;;;5061087;28;20465;-81
2021/01/08 07:29:58;;;;;;;38.55;17.20;;;1.60;99.90;;;;;;5049829;28;20100;-80
2021/01/08 07:32:50;;;;;;;34.17;14.95;;;1.70;99.90;;;;;;5051612;28;20032;-81
2021/01/08 07:35:24;;;;;;;38.03;16.60;;;1.60;99.90;;;;;;5048592;28;20028;-80
2021/01/08 07:37:58;;;;;;;38.85;17.33;;;1.60;99.90;;;;;;5047946;28;20032;-80
2021/01/08 07:40:26;;;;;;;35.53;14.68;;;1.60;99.90;;;;;;5045059;28;20075;-80
2021/01/08 07:42:58;;;;;;;39.13;17.08;;;1.60;99.90;;;;;;5047383;28;20061;-80
2021/01/08 07:46:00;;;;;;;41.10;17.67;;;1.60;99.90;;;;;;5047483;28;20051;-80
2021/01/08 07:48:31;;;;;;;;;;;1.60;99.90;;;;;;5079118;28;20489;-80
2021/01/08 07:51:03;;;;;;;34.95;15.88;;;1.70;99.90;;;;;;5074016;28;19908;-80
2021/01/08 07:53:53;;;;;;;28.13;12.52;;;1.70;99.90;;;;;;5065034;28;20058;-80
2021/01/08 07:56:23;;;;;;;43.58;17.25;;;1.60;99.90;;;;;;5069091;28;20037;-80
2021/01/08 07:59:06;;;;;;;39.75;15.18;;;1.70;99.90;;;;;;5063817;28;20028;-79
2021/01/08 08:01:33;;;;;;;38.10;16.25;;;1.70;99.90;;;;;;5074850;28;20052;-81
2021/01/08 08:04:02;;;;;;;32.50;13.60;;;1.70;99.90;;;;;;5072330;28;20020;-82
2021/01/08 08:06:29;;;;;;;45.58;17.60;;;1.70;99.90;;;;;;5081574;28;20032;-81
2021/01/08 08:08:59;;;;;;;41.90;17.63;;;1.70;99.90;;;;;;5077451;28;20024;-80
2021/01/08 08:11:32;;;;;;;41.28;17.73;;;1.70;99.90;;;;;;5078010;28;20044;-81
2021/01/08 08:13:59;;;;;;;45.03;17.75;;;1.70;99.90;;;;;;5087761;28;20040;-81
2021/01/08 08:16:33;;;;;;;46.60;18.40;;;1.70;99.90;;;;;;5092271;28;20021;-81
2021/01/08 08:18:59;;;;;;;43.83;17.30;;;1.70;99.90;;;;;;5066930;28;20035;-81
2021/01/08 08:21:25;;;;;;;43.30;16.38;;;1.70;99.90;;;;;;5058042;28;20044;-82
2021/01/08 08:23:59;;;;;;;40.38;16.30;;;1.70;99.90;;;;;;5055940;28;20033;-82
2021/01/08 08:26:26;;;;;;;50.50;18.08;;;1.70;99.90;;;;;;5056195;28;20393;-81
2021/01/08 08:29:03;;;;;;;51.10;18.25;;;1.70;99.90;;;;;;5050289;28;20033;-82
2021/01/08 08:31:33;;;;;;;52.53;17.52;;;1.70;99.90;;;;;;5048285;28;20028;-81
2021/01/08 08:34:00;;;;;;;56.58;20.05;;;1.70;99.90;;;;;;5049810;28;20189;-81
2021/01/08 08:36:27;;;;;;;51.95;18.33;;;1.80;99.90;;;;;;5045851;28;20164;-81
2021/01/08 08:39:12;;;;;;;49.65;19.27;;;1.70;99.90;;;;;;5047491;28;20032;-81
2021/01/08 08:41:39;;;;;;;40.30;15.52;;;1.80;99.90;;;;;;5049283;28;20033;-81
2021/01/08 08:44:10;;;;;;;52.75;19.90;;;1.80;99.90;;;;;;5045722;28;20119;-80
2021/01/08 08:46:52;;;;;;;;;;;1.80;99.90;;;;;;5068364;28;20411;-80
2021/01/08 08:49:25;;;;;;;46.30;17.25;;;1.80;99.90;;;;;;5045483;28;19935;-80
2021/01/08 08:51:53;;;;;;;48.00;18.25;;;1.80;99.90;;;;;;5022466;28;20103;-80
2021/01/08 08:54:19;;;;;;;47.63;18.25;;;1.80;99.90;;;;;;5022988;28;20042;-80
2021/01/08 08:56:54;;;;;;;54.00;18.48;;;1.80;99.90;;;;;;5026334;28;20033;-80
2021/01/08 08:59:40;;;;;;;56.80;20.45;;;1.90;99.90;;;;;;5025741;28;20524;-80
2021/01/08 09:02:16;;;;;;;53.78;19.08;;;1.90;99.90;;;;;;5014174;28;21802;-80
2021/01/08 09:04:51;;;;;;;52.20;19.33;;;1.90;99.90;;;;;;5016981;28;20030;-80
2021/01/08 09:07:22;;;;;;;48.72;18.10;;;2.00;99.90;;;;;;5006368;28;20045;-80
2021/01/08 09:09:51;;;;;;;53.33;18.23;;;2.00;99.90;;;;;;5021634;28;20401;-80
2021/01/08 09:12:47;;;;;;;52.40;19.83;;;2.10;99.90;;;;;;5004283;28;20498;-81
2021/01/08 09:15:26;;;;;;;50.13;19.83;;;2.00;99.90;;;;;;5023352;28;20171;-81
2021/01/08 09:18:31;;;;;;;60.22;21.45;;;2.10;99.90;;;;;;5021899;28;20124;-80
2021/01/08 09:21:15;;;;;;;41.53;16.42;;;2.10;99.90;;;;;;4926384;29;20039;-81
2021/01/08 09:23:46;;;;;;;40.95;15.23;;;2.10;99.90;;;;;;4893288;29;20052;-80
2021/01/08 09:26:14;;;;;;;53.15;19.98;;;2.00;99.90;;;;;;4858841;29;21203;-81
2021/01/08 09:28:49;;;;;;;57.17;19.92;;;2.10;99.90;;;;;;4866503;29;20047;-81
2021/01/08 09:31:15;;;;;;;47.72;18.98;;;2.10;99.90;;;;;;4899451;29;20076;-81
2021/01/08 09:33:41;;;;;;;59.03;22.58;;;2.10;99.90;;;;;;4884791;29;20224;-81
2021/01/08 09:36:07;;;;;;;56.95;23.85;;;2.20;99.90;;;;;;4884499;29;20462;-80
2021/01/08 09:38:34;;;;;;;61.58;20.77;;;2.30;99.90;;;;;;4880711;29;20044;-81
2021/01/08 09:41:00;;;;;;;60.65;21.70;;;2.30;99.90;;;;;;4887417;29;20028;-81
2021/01/08 09:43:25;;;;;;;54.30;21.20;;;2.40;99.90;;;;;;4868764;29;20188;-81
2021/01/08 09:46:05;;;;;;;54.47;21.10;;;2.40;99.90;;;;;;4890366;29;20084;-81
2021/01/08 09:48:32;;;;;;;52.60;20.75;;;2.40;99.90;;;;;;4886085;29;20131;-80
2021/01/08 09:51:02;;;;;;;46.97;19.15;;;2.40;99.90;;;;;;4873143;29;20452;-81
2021/01/08 09:53:28;;;;;;;57.40;23.60;;;2.40;99.90;;;;;;4898932;29;20090;-81
2021/01/08 09:55:53;;;;;;;46.33;19.30;;;2.50;99.90;;;;;;4925799;29;20042;-81
2021/01/08 09:58:19;;;;;;;56.08;22.25;;;2.40;99.90;;;;;;4967250;28;20431;-81
2021/01/08 10:00:51;;;;;;;57.13;19.30;;;2.40;99.90;;;;;;4985471;28;20034;-82
2021/01/08 10:03:18;;;;;;;49.00;21.67;;;2.40;99.90;;;;;;4985088;28;20034;-81
2021/01/08 10:05:43;;;;;;;60.90;24.10;;;2.40;99.90;;;;;;4961405;28;20046;-81
2021/01/08 10:08:20;;;;;;;53.53;23.50;;;2.40;99.90;;;;;;4944588;28;20717;-81
2021/01/08 10:10:46;;;;;;;56.88;23.33;;;2.50;99.90;;;;;;4930207;28;20455;-81
2021/01/08 10:13:21;;;;;;;61.28;23.70;;;2.60;99.90;;;;;;4944743;28;20066;-82
2021/01/08 10:15:52;;;;;;;57.83;22.88;;;2.60;99.90;;;;;;4948325;28;20768;-82
2021/01/08 10:18:22;;;;;;;59.47;23.57;;;2.60;99.90;;;;;;4943230;28;20133;-81
2021/01/08 10:20:51;;;;;;;52.08;21.40;;;2.70;99.90;;;;;;4947444;28;20113;-81
2021/01/08 10:23:19;;;;;;;53.45;22.88;;;2.60;99.90;;;;;;4951604;28;20045;-81
2021/01/08 10:25:45;;;;;;;57.20;23.10;;;2.60;99.90;;;;;;4962290;28;20038;-85
2021/01/08 10:28:22;;;;;;;62.00;25.80;;;2.60;99.90;;;;;;5007487;28;20032;-81
2021/01/08 10:30:50;;;;;;;57.33;23.45;;;2.60;99.90;;;;;;5009933;28;20045;-82
2021/01/08 10:33:16;;;;;;;70.40;24.67;;;2.60;99.90;;;;;;5012893;28;20055;-82
2021/01/08 10:35:51;;;;;;;65.93;25.70;;;2.70;99.90;;;;;;5018798;28;20436;-81
2021/01/08 10:38:18;;;;;;;64.20;25.20;;;2.70;99.90;;;;;;5001887;28;20192;-81
2021/01/08 10:40:44;;;;;;;72.70;28.23;;;2.80;99.90;;;;;;5016465;28;20104;-81
2021/01/08 10:43:09;;;;;;;71.22;28.02;;;2.70;99.90;;;;;;5010498;28;20182;-81
2021/01/08 10:45:36;;;;;;;73.97;27.85;;;2.70;99.90;;;;;;5044810;28;20033;-81
2021/01/08 10:48:02;;;;;;;71.18;27.80;;;2.70;99.90;;;;;;5060798;28;20052;-81
2021/01/08 10:50:29;;;;;;;72.15;29.63;;;2.60;99.90;;;;;;5057810;28;20028;-81
2021/01/08 10:52:55;;;;;;;79.32;29.40;;;2.50;99.90;;;;;;5041063;28;20031;-81
2021/01/08 10:55:21;;;;;;;65.07;25.45;;;2.40;99.90;;;;;;5043652;28;20468;-81
2021/01/08 10:57:46;;;;;;;68.28;26.25;;;2.40;99.90;;;;;;5043148;28;20029;-82
2021/01/08 11:00:14;;;;;;;55.10;23.73;;;2.40;99.90;;;;;;5042886;28;20373;-81
2021/01/08 11:02:40;;;;;;;57.90;24.42;;;2.40;99.90;;;;;;5026195;28;20481;-82
2021/01/08 11:05:08;;;;;;;58.85;25.15;;;2.30;99.90;;;;;;5044683;28;20054;-82
2021/01/08 11:07:35;;;;;;;53.42;22.27;;;2.40;99.90;;;;;;5045231;28;20029;-81
2021/01/08 11:10:02;;;;;;;54.03;21.33;;;2.40;99.90;;;;;;5047620;28;20055;-81
2021/01/08 11:12:28;;;;;;;44.15;18.92;;;2.30;99.90;;;;;;5031330;28;20425;-81
2021/01/08 11:14:54;;;;;;;41.83;17.92;;;2.30;99.90;;;;;;5043737;28;20116;-82
2021/01/08 11:17:21;;;;;;;44.15;19.83;;;2.30;99.90;;;;;;5043906;28;20036;-82
2021/01/08 11:19:48;;;;;;;44.72;20.15;;;2.30;99.90;;;;;;5043942;28;20481;-81
2021/01/08 11:22:14;;;;;;;39.85;17.85;;;2.40;99.90;;;;;;5045969;28;20370;-81
2021/01/08 11:24:41;;;;;;;45.97;19.30;;;2.40;99.90;;;;;;5035555;28;20052;-81
2021/01/08 11:27:08;;;;;;;44.97;19.58;;;2.30;99.90;;;;;;5053200;28;20020;-80
2021/01/08 11:29:35;;;;;;;50.90;20.30;;;2.30;99.90;;;;;;5049708;28;20253;-81
2021/01/08 11:32:01;;;;;;;50.53;21.33;;;2.30;99.90;;;;;;5044857;28;20028;-81
2021/01/08 11:34:27;;;;;;;45.40;20.02;;;2.40;99.90;;;;;;5043357;28;20047;-81
2021/01/08 11:36:57;;;;;;;47.03;21.58;;;2.30;99.90;;;;;;5042318;28;20024;-81
2021/01/08 11:39:23;;;;;;;49.90;20.95;;;2.40;99.90;;;;;;5041681;28;21720;-81
2021/01/08 11:41:53;;;;;;;44.95;20.02;;;2.40;99.90;;;;;;5045834;28;20084;-82
2021/01/08 11:44:19;;;;;;;52.08;20.38;;;2.50;99.90;;;;;;5066382;28;20082;-81
2021/01/08 11:46:44;;;;;;;48.13;20.92;;;2.50;99.90;;;;;;5041039;28;20485;-81
2021/01/08 11:49:10;;;;;;;44.35;19.15;;;2.60;99.90;;;;;;5010880;28;20044;-81
2021/01/08 11:51:36;;;;;;;44.25;19.67;;;2.60;99.90;;;;;;5063568;28;20039;-81
2021/01/08 11:54:02;;;;;;;52.20;20.80;;;2.70;99.90;;;;;;5045271;28;20032;-81
2021/01/08 11:56:29;;;;;;;46.25;18.83;;;2.80;99.90;;;;;;5048358;28;20024;-81
2021/01/08 11:58:55;;;;;;;39.03;18.52;;;2.80;99.90;;;;;;5046524;28;20132;-81
2021/01/08 12:01:26;;;;;;;49.28;20.15;;;2.80;99.90;;;;;;5061341;28;20025;-81
2021/01/08 12:03:52;;;;;;;51.45;21.25;;;2.90;99.90;;;;;;5045523;28;20438;-81
2021/01/08 12:06:24;;;;;;;57.28;20.17;;;3.00;99.90;;;;;;5040607;28;20033;-81
2021/01/08 12:08:49;;;;;;;42.90;19.83;;;2.90;99.90;;;;;;5044608;28;20016;-81
2021/01/08 12:11:15;;;;;;;41.17;19.25;;;2.90;99.90;;;;;;5045440;28;20025;-81
2021/01/08 12:13:42;;;;;;;53.92;19.20;;;2.90;99.90;;;;;;5025912;28;20044;-81
2021/01/08 12:16:09;;;;;;;44.70;17.80;;;2.90;99.90;;;;;;4996977;28;20409;-81
2021/01/08 12:18:34;;;;;;;36.35;17.27;;;3.00;99.90;;;;;;4986460;28;20336;-81
2021/01/08 12:21:00;;;;;;;39.28;17.88;;;3.00;99.90;;;;;;4972800;28;20502;-81
2021/01/08 12:23:25;;;;;;;37.33;16.73;;;3.00;99.90;;;;;;4965602;28;20052;-81
2021/01/08 12:25:52;;;;;;;37.80;18.55;;;3.00;99.90;;;;;;4962284;28;20089;-81
2021/01/08 12:28:18;;;;;;;34.95;17.58;;;3.00;99.90;;;;;;4967037;28;20035;-81
2021/01/08 12:30:44;;;;;;;34.15;17.35;;;3.00;99.90;;;;;;4974316;28;20179;-81
2021/01/08 12:33:10;;;;;;;43.95;18.48;;;3.10;99.90;;;;;;4966917;28;20120;-81
2021/01/08 12:35:37;;;;;;;36.20;17.17;;;3.10;99.90;;;;;;4973703;28;20042;-81
2021/01/08 12:38:02;;;;;;;32.67;15.82;;;3.10;99.90;;;;;;4959455;28;20053;-81
2021/01/08 12:40:28;;;;;;;41.25;17.83;;;3.20;99.90;;;;;;4965690;28;21364;-81
2021/01/08 12:42:54;;;;;;;33.33;16.98;;;3.20;99.90;;;;;;4967338;28;20047;-81
2021/01/08 12:45:22;;;;;;;40.28;19.55;;;3.30;99.90;;;;;;4967393;28;20038;-81